Time,TemperatureF,DewpointF,PressureIn,WindDirection,WindDirectionDegrees,WindSpeedMPH,WindSpeedGustMPH,Humidity,HourlyPrecipIn,Conditions,Clouds,dailyrainin,SoftwareType,DateUTC
2013-12-30 00:00:00,37.8,36.0,29.95,North,5,0.0,1.0,92,0.00,,,0.80,weatherlink.com 1.10,2013-12-30 05:00:00,
2013-12-30 00:15:00,38.6,37.0,29.95,North,5,0.0,2.0,92,0.00,,,0.00,weatherlink.com 1.10,2013-12-30 05:15:00,
2013-12-30 00:45:00,38.1,36.0,29.96,North,5,0.0,1.0,90,0.00,,,0.00,weatherlink.com 1.10,2013-12-30 05:45:00,
2013-12-30 01:00:00,42.3,36.0,29.95,NNW,343,4.0,5.0,78,0.00,,,0.00,weatherlink.com 1.10,2013-12-30 06:00:00,
2013-12-30 01:15:00,44.0,36.0,29.95,North,5,0.0,3.0,73,0.00,,,0.00,weatherlink.com 1.10,2013-12-30 06:15:00,
2013-12-30 01:30:00,40.2,35.0,29.96,North,355,0.0,2.0,80,0.00,,,0.00,weatherlink.com 1.10,2013-12-30 06:30:00,
2013-12-30 01:45:00,37.9,35.0,29.97,North,355,0.0,2.0,88,0.00,,,0.00,weatherlink.com 1.10,2013-12-30 06:45:00,
2013-12-30 02:00:00,37.1,34.0,29.97,North,355,0.0,3.0,89,0.00,,,0.00,weatherlink.com 1.10,2013-12-30 07:00:00,
2013-12-30 02:15:00,35.9,33.0,29.97,North,355,0.0,1.0,90,0.00,,,0.00,weatherlink.com 1.10,2013-12-30 07:15:00,
2013-12-30 02:30:00,35.3,34.0,29.97,North,355,0.0,2.0,93,0.00,,,0.00,weatherlink.com 1.10,2013-12-30 07:30:00,
2013-12-30 02:45:00,35.2,33.0,29.97,North,355,0.0,0.0,93,0.00,,,0.00,weatherlink.com 1.10,2013-12-30 07:45:00,
2013-12-30 03:00:00,35.0,33.0,29.96,North,355,0.0,0.0,93,0.00,,,0.00,weatherlink.com 1.10,2013-12-30 08:00:00,
2013-12-30 03:15:00,34.4,33.0,29.96,North,355,0.0,3.0,94,0.00,,,0.00,weatherlink.com 1.10,2013-12-30 08:15:00,
2013-12-30 03:30:00,33.7,32.0,29.97,North,355,0.0,0.0,94,0.00,,,0.00,weatherlink.com 1.10,2013-12-30 08:30:00,
2013-12-30 03:45:00,33.2,32.0,29.97,North,355,0.0,0.0,94,0.00,,,0.00,weatherlink.com 1.10,2013-12-30 08:45:00,
2013-12-30 04:15:00,32.6,31.0,29.98,North,355,0.0,1.0,94,0.00,,,0.00,weatherlink.com 1.10,2013-12-30 09:15:00,
2013-12-30 04:30:00,32.8,32.0,29.98,North,355,0.0,0.0,95,0.00,,,0.00,weatherlink.com 1.10,2013-12-30 09:30:00,
2013-12-30 04:45:00,32.8,32.0,29.99,North,355,0.0,0.0,95,0.00,,,0.00,weatherlink.com 1.10,2013-12-30 09:45:00,
2013-12-30 05:00:00,32.6,31.0,29.98,North,355,0.0,0.0,95,0.00,,,0.00,weatherlink.com 1.10,2013-12-30 10:00:00,
2013-12-30 05:16:00,32.4,31.0,29.98,North,355,0.0,2.0,95,0.00,,,0.00,weatherlink.com 1.10,2013-12-30 10:16:00,
2013-12-30 05:31:00,32.0,31.0,29.99,North,355,0.0,1.0,95,0.00,,,0.00,weatherlink.com 1.10,2013-12-30 10:31:00,
2013-12-30 05:46:00,31.9,31.0,29.99,North,355,0.0,0.0,95,0.00,,,0.00,weatherlink.com 1.10,2013-12-30 10:46:00,
2013-12-30 06:01:00,32.0,31.0,29.99,North,355,0.0,1.0,96,0.00,,,0.00,weatherlink.com 1.10,2013-12-30 11:01:00,
2013-12-30 06:15:00,31.9,31.0,30.01,North,355,1.0,2.0,95,0.00,,,0.00,weatherlink.com 1.10,2013-12-30 11:15:00,
2013-12-30 06:31:00,32.5,32.0,30.00,North,355,0.0,1.0,96,0.00,,,0.00,weatherlink.com 1.10,2013-12-30 11:31:00,
2013-12-30 06:46:00,31.9,31.0,30.01,North,355,0.0,0.0,95,0.00,,,0.00,weatherlink.com 1.10,2013-12-30 11:46:00,
2013-12-30 07:01:00,31.9,31.0,30.02,North,355,0.0,1.0,96,0.00,,,0.00,weatherlink.com 1.10,2013-12-30 12:01:00,
2013-12-30 07:16:00,31.7,31.0,30.03,North,355,0.0,0.0,96,0.00,,,0.00,weatherlink.com 1.10,2013-12-30 12:16:00,
2013-12-30 07:31:00,31.5,31.0,30.02,North,355,0.0,0.0,96,0.00,,,0.00,weatherlink.com 1.10,2013-12-30 12:31:00,
2013-12-30 07:46:00,31.8,31.0,30.03,North,355,0.0,1.0,96,0.00,,,0.00,weatherlink.com 1.10,2013-12-30 12:46:00,
2013-12-30 08:01:00,32.0,31.0,30.02,North,355,0.0,2.0,96,0.00,,,0.00,weatherlink.com 1.10,2013-12-30 13:01:00,
2013-12-30 08:16:00,32.1,31.0,30.04,North,355,0.0,1.0,96,0.00,,,0.00,weatherlink.com 1.10,2013-12-30 13:16:00,
2013-12-30 08:46:00,33.2,33.0,30.06,North,355,0.0,2.0,97,0.00,,,0.00,weatherlink.com 1.10,2013-12-30 13:46:00,
2013-12-30 09:01:00,33.9,33.0,30.08,North,355,0.0,0.0,97,0.00,,,0.00,weatherlink.com 1.10,2013-12-30 14:01:00,
2013-12-30 09:16:00,35.1,34.0,30.07,North,355,0.0,2.0,97,0.00,,,0.00,weatherlink.com 1.10,2013-12-30 14:16:00,
2013-12-30 09:31:00,36.6,36.0,30.07,North,355,0.0,2.0,97,0.00,,,0.00,weatherlink.com 1.10,2013-12-30 14:31:00,
2013-12-30 09:46:00,37.8,37.0,30.07,NE,56,2.0,4.0,96,0.00,,,0.00,weatherlink.com 1.10,2013-12-30 14:46:00,
2013-12-30 10:01:00,37.8,36.0,30.07,ENE,67,1.0,4.0,94,0.00,,,0.00,weatherlink.com 1.10,2013-12-30 15:01:00,
2013-12-30 10:16:00,38.6,37.0,30.08,NE,34,1.0,3.0,92,0.00,,,0.00,weatherlink.com 1.10,2013-12-30 15:16:00,
2013-12-30 10:31:00,40.3,38.0,30.07,NE,34,0.0,2.0,91,0.00,,,0.00,weatherlink.com 1.10,2013-12-30 15:31:00,
2013-12-30 10:46:00,43.1,40.0,30.07,NNE,21,1.0,1.0,87,0.00,,,0.00,weatherlink.com 1.10,2013-12-30 15:46:00,
2013-12-30 11:01:00,45.3,40.0,30.07,NNW,331,2.0,3.0,81,0.00,,,0.00,weatherlink.com 1.10,2013-12-30 16:01:00,
2013-12-30 11:16:00,47.0,40.0,30.08,NNW,336,3.0,4.0,77,0.00,,,0.00,weatherlink.com 1.10,2013-12-30 16:16:00,
2013-12-30 11:31:00,47.8,41.0,30.08,NNW,336,0.0,3.0,76,0.00,,,0.00,weatherlink.com 1.10,2013-12-30 16:31:00,
2013-12-30 11:46:00,48.7,41.0,30.07,NNW,328,0.0,3.0,75,0.00,,,0.00,weatherlink.com 1.10,2013-12-30 16:46:00,
2013-12-30 12:01:00,49.8,43.0,30.07,NNW,328,1.0,1.0,76,0.00,,,0.00,weatherlink.com 1.10,2013-12-30 17:01:00,
2013-12-30 12:16:00,50.4,42.0,30.07,WNW,288,3.0,5.0,72,0.00,,,0.00,weatherlink.com 1.10,2013-12-30 17:16:00,
2013-12-30 12:31:00,50.4,42.0,30.07,WNW,288,2.0,4.0,73,0.00,,,0.00,weatherlink.com 1.10,2013-12-30 17:31:00,
2013-12-30 12:47:00,51.0,42.0,30.05,SW,227,3.0,5.0,71,0.00,,,0.00,weatherlink.com 1.10,2013-12-30 17:47:00,
2013-12-30 13:01:00,51.2,41.0,30.05,WSW,239,0.0,4.0,69,0.00,,,0.00,weatherlink.com 1.10,2013-12-30 18:01:00,
2013-12-30 13:16:00,51.5,41.0,30.05,WSW,250,2.0,5.0,68,0.00,,,0.00,weatherlink.com 1.10,2013-12-30 18:16:00,
2013-12-30 13:32:00,51.5,41.0,30.04,West,275,0.0,7.0,68,0.00,,,0.00,weatherlink.com 1.10,2013-12-30 18:32:00,
2013-12-30 13:47:00,51.7,40.0,30.04,West,276,3.0,6.0,65,0.00,,,0.00,weatherlink.com 1.10,2013-12-30 18:47:00,
2013-12-30 14:02:00,51.7,40.0,30.05,West,259,4.0,6.0,64,0.00,,,0.00,weatherlink.com 1.10,2013-12-30 19:02:00,
2013-12-30 14:17:00,51.7,41.0,30.03,WSW,257,2.0,6.0,66,0.00,,,0.00,weatherlink.com 1.10,2013-12-30 19:17:00,
2013-12-30 14:32:00,52.1,41.0,30.04,West,263,3.0,5.0,65,0.00,,,0.00,weatherlink.com 1.10,2013-12-30 19:32:00,
2013-12-30 14:47:00,52.2,41.0,30.04,WSW,240,3.0,6.0,66,0.00,,,0.00,weatherlink.com 1.10,2013-12-30 19:47:00,
2013-12-30 15:02:00,52.7,41.0,30.04,SW,222,2.0,8.0,64,0.00,,,0.00,weatherlink.com 1.10,2013-12-30 20:02:00,
2013-12-30 15:17:00,52.7,40.0,30.04,SW,225,2.0,7.0,63,0.00,,,0.00,weatherlink.com 1.10,2013-12-30 20:17:00,
2013-12-30 15:32:00,52.6,40.0,30.05,SSW,200,5.0,6.0,63,0.00,,,0.00,weatherlink.com 1.10,2013-12-30 20:32:00,
2013-12-30 15:47:00,52.3,41.0,30.05,West,263,3.0,7.0,65,0.00,,,0.00,weatherlink.com 1.10,2013-12-30 20:47:00,
2013-12-30 16:02:00,52.1,41.0,30.06,SSW,204,2.0,6.0,65,0.00,,,0.00,weatherlink.com 1.10,2013-12-30 21:02:00,
2013-12-30 16:17:00,51.7,41.0,30.05,SW,223,1.0,6.0,66,0.00,,,0.00,weatherlink.com 1.10,2013-12-30 21:17:00,
2013-12-30 16:32:00,51.4,40.0,30.05,SSW,207,4.0,5.0,66,0.00,,,0.00,weatherlink.com 1.10,2013-12-30 21:32:00,
2013-12-30 16:47:00,51.0,41.0,30.05,ESE,105,1.0,2.0,68,0.00,,,0.00,weatherlink.com 1.10,2013-12-30 21:47:00,
2013-12-30 17:02:00,50.5,41.0,30.07,ESE,105,0.0,2.0,69,0.00,,,0.00,weatherlink.com 1.10,2013-12-30 22:02:00,
2013-12-30 17:17:00,49.4,41.0,30.07,ESE,105,0.0,1.0,73,0.00,,,0.00,weatherlink.com 1.10,2013-12-30 22:17:00,
2013-12-30 17:32:00,48.0,42.0,30.07,ESE,105,0.0,0.0,79,0.00,,,0.00,weatherlink.com 1.10,2013-12-30 22:32:00,
2013-12-30 17:47:00,46.4,41.0,30.06,ESE,105,0.0,0.0,82,0.00,,,0.00,weatherlink.com 1.10,2013-12-30 22:47:00,
2013-12-30 18:02:00,45.5,41.0,30.06,ESE,105,1.0,1.0,83,0.00,,,0.00,weatherlink.com 1.10,2013-12-30 23:02:00,
2013-12-30 18:17:00,44.5,40.0,30.07,ESE,105,0.0,1.0,85,0.00,,,0.00,weatherlink.com 1.10,2013-12-30 23:17:00,
2013-12-30 18:32:00,43.6,40.0,30.08,ESE,105,0.0,0.0,87,0.00,,,0.00,weatherlink.com 1.10,2013-12-30 23:32:00,
2013-12-30 18:47:00,43.0,40.0,30.09,ESE,105,0.0,0.0,89,0.00,,,0.00,weatherlink.com 1.10,2013-12-30 23:47:00,
2013-12-30 19:02:00,42.5,40.0,30.09,ESE,105,0.0,2.0,89,0.00,,,0.00,weatherlink.com 1.10,2013-12-31 00:02:00,
2013-12-30 19:17:00,41.9,39.0,30.08,ESE,105,0.0,0.0,90,0.00,,,0.00,weatherlink.com 1.10,2013-12-31 00:17:00,
2013-12-30 19:32:00,41.9,39.0,30.09,ESE,105,0.0,0.0,90,0.00,,,0.00,weatherlink.com 1.10,2013-12-31 00:32:00,
2013-12-30 19:47:00,41.3,39.0,30.09,ESE,105,0.0,2.0,91,0.00,,,0.00,weatherlink.com 1.10,2013-12-31 00:47:00,
2013-12-30 20:03:00,41.3,39.0,30.10,ESE,105,0.0,0.0,92,0.00,,,0.00,weatherlink.com 1.10,2013-12-31 01:03:00,
2013-12-30 20:16:00,40.9,39.0,30.11,ESE,105,0.0,1.0,91,0.00,,,0.00,weatherlink.com 1.10,2013-12-31 01:16:00,
2013-12-30 20:31:00,40.5,39.0,30.11,ESE,105,1.0,3.0,93,0.00,,,0.00,weatherlink.com 1.10,2013-12-31 01:31:00,
2013-12-30 20:46:00,41.0,39.0,30.10,ESE,105,0.0,1.0,91,0.00,,,0.00,weatherlink.com 1.10,2013-12-31 01:46:00,
2013-12-30 21:01:00,40.8,39.0,30.09,ESE,105,0.0,1.0,92,0.00,,,0.00,weatherlink.com 1.10,2013-12-31 02:01:00,
2013-12-30 21:16:00,41.7,39.0,30.10,ESE,105,0.0,2.0,91,0.00,,,0.00,weatherlink.com 1.10,2013-12-31 02:16:00,
2013-12-30 21:31:00,42.5,39.0,30.11,ESE,105,1.0,3.0,88,0.00,,,0.00,weatherlink.com 1.10,2013-12-31 02:31:00,
2013-12-30 21:46:00,43.4,39.0,30.11,WNW,284,3.0,4.0,85,0.00,,,0.00,weatherlink.com 1.10,2013-12-31 02:46:00,
2013-12-30 22:01:00,43.8,39.0,30.11,West,281,4.0,5.0,83,0.00,,,0.00,weatherlink.com 1.10,2013-12-31 03:01:00,
2013-12-30 22:17:00,43.9,38.0,30.11,WNW,292,3.0,5.0,81,0.00,,,0.00,weatherlink.com 1.10,2013-12-31 03:17:00,
2013-12-30 22:32:00,44.0,39.0,30.12,WNW,286,4.0,4.0,81,0.00,,,0.00,weatherlink.com 1.10,2013-12-31 03:32:00,
2013-12-30 22:47:00,43.9,38.0,30.12,NW,312,1.0,5.0,80,0.00,,,0.00,weatherlink.com 1.10,2013-12-31 03:47:00,
2013-12-30 23:02:00,44.0,38.0,30.12,WNW,300,0.0,5.0,79,0.00,,,0.00,weatherlink.com 1.10,2013-12-31 04:02:00,
2013-12-30 23:32:00,43.8,38.0,30.11,WNW,302,1.0,6.0,79,0.00,,,0.00,weatherlink.com 1.10,2013-12-31 04:32:00,
2013-12-30 23:47:00,43.7,38.0,30.11,NW,325,4.0,4.0,79,0.00,,,0.00,weatherlink.com 1.10,2013-12-31 04:47:00,